TimeCDT,TemperatureF,Dew PointF,Humidity,Sea Level PressureIn,VisibilityMPH,Wind Direction,Wind SpeedMPH,Gust SpeedMPH,PrecipitationIn,Events,Conditions,WindDirDegrees,DateUTC
12:15 AM,37.4,35.6,93,30.16,10.0,Calm,Calm,-,N/A,,Clear,0,2012-10-09 05:15:00
12:55 AM,37.4,35.6,93,30.15,10.0,Calm,Calm,-,N/A,,Clear,0,2012-10-09 05:55:00
1:15 AM,37.4,35.6,93,30.15,10.0,Calm,Calm,-,N/A,,Clear,0,2012-10-09 06:15:00
1:55 AM,37.4,35.6,93,30.16,3.0,Calm,Calm,-,N/A,,Partly Cloudy,0,2012-10-09 06:55:00
2:35 AM,35.6,35.6,100,30.15,0.5,Calm,Calm,-,N/A,,Unknown,0,2012-10-09 07:35:00
2:55 AM,35.6,35.6,100,30.15,5.0,Calm,Calm,-,N/A,,Clear,0,2012-10-09 07:55:00
3:15 AM,35.6,35.6,100,30.14,10.0,Calm,Calm,-,N/A,,Clear,0,2012-10-09 08:15:00
3:35 AM,35.6,33.8,93,30.14,10.0,Calm,Calm,-,N/A,,Clear,0,2012-10-09 08:35:00
3:55 AM,35.6,33.8,93,30.15,10.0,Calm,Calm,-,N/A,,Clear,0,2012-10-09 08:55:00
4:15 AM,35.6,33.8,93,30.15,10.0,Calm,Calm,-,N/A,,Clear,0,2012-10-09 09:15:00
4:35 AM,33.8,33.8,100,30.15,10.0,Calm,Calm,-,N/A,,Clear,0,2012-10-09 09:35:00
4:55 AM,35.6,33.8,93,30.15,10.0,Calm,Calm,-,N/A,,Clear,0,2012-10-09 09:55:00
5:15 AM,33.8,33.8,100,30.15,10.0,Calm,Calm,-,N/A,,Clear,0,2012-10-09 10:15:00
5:35 AM,35.6,33.8,93,30.16,10.0,Calm,Calm,-,N/A,,Clear,0,2012-10-09 10:35:00
5:55 AM,33.8,32.0,93,30.16,10.0,Calm,Calm,-,N/A,,Unknown,0,2012-10-09 10:55:00
6:15 AM,35.6,33.8,93,30.16,1.0,Calm,Calm,-,N/A,,Unknown,0,2012-10-09 11:15:00
6:55 AM,33.8,33.8,100,30.16,0.8,Calm,Calm,-,N/A,,Mostly Cloudy,0,2012-10-09 11:55:00
7:15 AM,35.6,35.6,100,30.16,2.5,Calm,Calm,-,N/A,,Scattered Clouds,0,2012-10-09 12:15:00
7:35 AM,35.6,35.6,100,30.17,9.0,Calm,Calm,-,N/A,,Clear,0,2012-10-09 12:35:00
7:55 AM,39.2,37.4,93,30.17,10.0,Calm,Calm,-,N/A,,Clear,0,2012-10-09 12:55:00
8:15 AM,42.8,39.2,87,30.17,10.0,Calm,Calm,-,N/A,,Clear,0,2012-10-09 13:15:00
8:35 AM,44.6,41.0,87,30.16,10.0,Calm,Calm,-,N/A,,Clear,0,2012-10-09 13:35:00
8:55 AM,46.4,42.8,87,30.17,10.0,Calm,Calm,-,N/A,,Clear,0,2012-10-09 13:55:00
9:15 AM,46.4,42.8,87,30.18,10.0,Calm,Calm,-,N/A,,Clear,0,2012-10-09 14:15:00
9:35 AM,48.2,44.6,87,30.18,10.0,Calm,Calm,-,N/A,,Clear,0,2012-10-09 14:35:00
9:55 AM,50.0,44.6,82,30.18,10.0,Calm,Calm,-,N/A,,Clear,0,2012-10-09 14:55:00
10:15 AM,51.8,42.8,71,30.18,10.0,Calm,Calm,-,N/A,,Clear,0,2012-10-09 15:15:00
10:35 AM,53.6,42.8,67,30.18,10.0,Variable,3.5,-,N/A,,Clear,0,2012-10-09 15:35:00
10:55 AM,53.6,42.8,67,30.17,10.0,Calm,Calm,-,N/A,,Mostly Cloudy,0,2012-10-09 15:55:00
11:15 AM,55.4,42.8,63,30.16,10.0,Variable,3.5,-,N/A,,Partly Cloudy,0,2012-10-09 16:15:00
11:55 AM,55.4,42.8,63,30.15,10.0,Calm,Calm,-,N/A,,Clear,0,2012-10-09 16:55:00
12:15 PM,57.2,44.6,63,30.14,10.0,Calm,Calm,-,N/A,,Clear,0,2012-10-09 17:15:00
12:35 PM,57.2,44.6,63,30.14,10.0,East,8.1,-,N/A,,Partly Cloudy,90,2012-10-09 17:35:00
12:55 PM,57.2,44.6,63,30.13,10.0,East,4.6,-,N/A,,Clear,90,2012-10-09 17:55:00
1:15 PM,59.0,44.6,59,30.12,10.0,NW,3.5,-,N/A,,Clear,310,2012-10-09 18:15:00
1:35 PM,60.8,44.6,55,30.11,10.0,SSW,5.8,-,N/A,,Clear,210,2012-10-09 18:35:00
1:55 PM,60.8,44.6,55,30.10,10.0,Calm,Calm,-,N/A,,Clear,0,2012-10-09 18:55:00
2:15 PM,60.8,44.6,55,30.10,10.0,Calm,Calm,-,N/A,,Clear,0,2012-10-09 19:15:00
2:35 PM,60.8,44.6,55,30.08,10.0,Variable,3.5,-,N/A,,Clear,0,2012-10-09 19:35:00
2:55 PM,62.6,44.6,52,30.07,10.0,SSE,8.1,-,N/A,,Clear,160,2012-10-09 19:55:00
3:15 PM,62.6,44.6,52,30.07,10.0,Calm,Calm,-,N/A,,Clear,0,2012-10-09 20:15:00
3:35 PM,62.6,44.6,52,30.06,10.0,SSW,6.9,-,N/A,,Unknown,200,2012-10-09 20:35:00
3:55 PM,62.6,44.6,52,30.06,10.0,SSE,3.5,-,N/A,,Clear,160,2012-10-09 20:55:00
4:15 PM,62.6,46.4,55,30.06,10.0,Calm,Calm,-,N/A,,Clear,0,2012-10-09 21:15:00
4:35 PM,62.6,46.4,55,30.06,10.0,Calm,Calm,-,N/A,,Clear,0,2012-10-09 21:35:00
4:55 PM,62.6,46.4,55,30.06,10.0,South,3.5,-,N/A,,Clear,180,2012-10-09 21:55:00
5:15 PM,60.8,46.4,59,30.06,10.0,Calm,Calm,-,N/A,,Clear,0,2012-10-09 22:15:00
5:35 PM,60.8,46.4,59,30.06,10.0,Calm,Calm,-,N/A,,Clear,0,2012-10-09 22:35:00
5:55 PM,60.8,46.4,59,30.05,10.0,Calm,Calm,-,N/A,,Clear,0,2012-10-09 22:55:00
6:15 PM,57.2,48.2,72,30.05,10.0,Calm,Calm,-,N/A,,Clear,0,2012-10-09 23:15:00
6:35 PM,53.6,48.2,82,30.05,10.0,Calm,Calm,-,N/A,,Clear,0,2012-10-09 23:35:00
6:55 PM,51.8,46.4,82,30.06,10.0,Calm,Calm,-,N/A,,Clear,0,2012-10-09 23:55:00
7:15 PM,50.0,46.4,87,30.06,10.0,Calm,Calm,-,N/A,,Clear,0,2012-10-10 00:15:00
7:35 PM,48.2,46.4,93,30.06,10.0,Calm,Calm,-,N/A,,Clear,0,2012-10-10 00:35:00
7:55 PM,48.2,46.4,93,30.06,10.0,Calm,Calm,-,N/A,,Clear,0,2012-10-10 00:55:00
8:15 PM,48.2,44.6,87,30.07,10.0,Calm,Calm,-,N/A,,Clear,0,2012-10-10 01:15:00
8:35 PM,46.4,44.6,93,30.07,10.0,Calm,Calm,-,N/A,,Clear,0,2012-10-10 01:35:00
8:55 PM,46.4,44.6,93,30.07,10.0,Calm,Calm,-,N/A,,Clear,0,2012-10-10 01:55:00
9:15 PM,46.4,44.6,93,30.07,10.0,Calm,Calm,-,N/A,,Clear,0,2012-10-10 02:15:00
9:35 PM,46.4,44.6,93,30.07,10.0,Calm,Calm,-,N/A,,Clear,0,2012-10-10 02:35:00
9:55 PM,44.6,42.8,93,30.07,10.0,Calm,Calm,-,N/A,,Clear,0,2012-10-10 02:55:00
10:15 PM,44.6,42.8,93,30.07,10.0,Calm,Calm,-,N/A,,Clear,0,2012-10-10 03:15:00
10:35 PM,44.6,44.6,100,30.07,10.0,SSE,4.6,-,N/A,,Clear,150,2012-10-10 03:35:00
10:55 PM,48.2,46.4,93,30.06,10.0,SSE,4.6,-,N/A,,Clear,150,2012-10-10 03:55:00
11:15 PM,48.2,46.4,93,30.06,10.0,Calm,Calm,-,N/A,,Clear,0,2012-10-10 04:15:00
11:35 PM,46.4,44.6,93,30.05,10.0,Calm,Calm,-,N/A,,Clear,0,2012-10-10 04:35:00
11:55 PM,46.4,44.6,93,30.06,8.0,Calm,Calm,-,N/A,,Clear,0,2012-10-10 04:55:00